Time;durP1;ratioP1;P1;durP2;ratioP2;P2;SDS_P1;SDS_P2;PMS_P1;PMS_P2;Temp;Humidity;BMP_temperature;BMP_pressure;BME280_temperature;BME280_humidity;BME280_pressure;Samples;Min_cycle;Max_cycle;Signal;HPM_P1;HPM_P2
2023/03/01 00:02:00;;;;;;;2.42;0.50;;;-2.40;99.90;;;;;;4891639;29;20065;-83
2023/03/01 00:04:27;;;;;;;2.13;0.70;;;-2.40;99.90;;;;;;4884369;29;20124;-82
2023/03/01 00:06:53;;;;;;;2.08;0.60;;;-2.40;99.90;;;;;;4877768;29;20280;-82
2023/03/01 00:09:19;;;;;;;1.88;0.60;;;-2.50;99.90;;;;;;4911063;29;20037;-82
2023/03/01 00:11:45;;;;;;;1.48;0.50;;;-2.50;99.90;;;;;;4895203;29;20041;-82
2023/03/01 00:14:11;;;;;;;1.42;0.60;;;-2.60;99.90;;;;;;4893751;29;20550;-83
2023/03/01 00:16:40;;;;;;;1.98;0.55;;;-2.60;99.90;;;;;;4893581;29;20045;-82
2023/03/01 00:19:09;;;;;;;1.92;0.60;;;-2.40;99.90;;;;;;4893264;29;20481;-81
2023/03/01 00:21:35;;;;;;;2.30;0.52;;;-2.50;99.90;;;;;;4910878;29;20171;-81
2023/03/01 00:24:02;;;;;;;1.98;0.50;;;-2.50;99.90;;;;;;4895271;29;20032;-83
2023/03/01 00:26:28;;;;;;;1.77;0.50;;;-2.70;99.90;;;;;;4895575;29;20063;-81
2023/03/01 00:28:57;;;;;;;1.77;0.60;;;-2.80;99.90;;;;;;4894694;29;20603;-82
2023/03/01 00:31:25;;;;;;;3.00;0.60;;;-3.00;99.90;;;;;;4894241;29;20052;-82
2023/03/01 00:33:56;;;;;;;1.92;0.40;;;-2.90;99.90;;;;;;4892338;29;20040;-81
2023/03/01 00:36:24;;;;;;;2.58;0.50;;;-3.00;99.90;;;;;;4894058;29;20025;-81
2023/03/01 00:38:50;;;;;;;1.63;0.50;;;-2.80;99.90;;;;;;4891178;29;20032;-81
2023/03/01 00:41:17;;;;;;;3.15;0.40;;;-2.80;99.90;;;;;;4892262;29;20029;-82
2023/03/01 00:43:44;;;;;;;1.52;0.50;;;-2.90;99.90;;;;;;4891336;29;20047;-82
2023/03/01 00:46:16;;;;;;;1.60;0.40;;;-3.10;99.90;;;;;;4892468;29;20028;-82
2023/03/01 00:48:43;;;;;;;1.35;0.60;;;-3.10;99.90;;;;;;4892253;29;20033;-81
2023/03/01 00:51:14;;;;;;;1.55;0.45;;;-2.90;99.90;;;;;;4895039;29;20492;-82
2023/03/01 00:53:40;;;;;;;2.60;0.60;;;-3.10;99.90;;;;;;4891600;29;20080;-84
2023/03/01 00:56:08;;;;;;;1.40;0.40;;;-3.10;99.90;;;;;;4910163;29;20048;-84
2023/03/01 00:58:35;;;;;;;2.20;0.60;;;-2.80;99.90;;;;;;4894278;29;20048;-82
2023/03/01 01:01:01;;;;;;;1.65;0.50;;;-2.80;99.90;;;;;;4894954;29;20065;-84
2023/03/01 01:03:26;;;;;;;2.53;0.60;;;-2.90;99.90;;;;;;4896560;29;20406;-84
2023/03/01 01:05:52;;;;;;;1.48;0.50;;;-3.10;99.90;;;;;;4893954;29;20116;-84
2023/03/01 01:08:20;;;;;;;1.60;0.50;;;-3.30;99.90;;;;;;4893559;29;20035;-82
2023/03/01 01:10:46;;;;;;;1.70;0.50;;;-3.40;99.90;;;;;;4880616;29;20029;-83
2023/03/01 01:13:12;;;;;;;1.30;0.50;;;-3.30;99.90;;;;;;4893486;29;20080;-81
2023/03/01 01:15:38;;;;;;;1.20;0.50;;;-3.30;99.90;;;;;;4895465;29;20039;-82
2023/03/01 01:18:04;;;;;;;2.00;0.50;;;-3.30;99.90;;;;;;4892286;29;20039;-83
2023/03/01 01:20:30;;;;;;;1.67;0.50;;;-3.20;99.90;;;;;;4910545;29;20032;-82
2023/03/01 01:22:55;;;;;;;2.28;0.70;;;-3.10;99.90;;;;;;4890954;29;20355;-83
2023/03/01 01:25:21;;;;;;;1.85;0.68;;;-3.20;99.90;;;;;;4891554;29;20080;-83
2023/03/01 01:27:47;;;;;;;1.80;0.50;;;-3.30;99.90;;;;;;4909735;29;20043;-82
2023/03/01 01:30:13;;;;;;;1.90;0.55;;;-3.20;99.90;;;;;;4894178;29;20036;-81
2023/03/01 01:32:38;;;;;;;2.30;0.50;;;-3.30;99.90;;;;;;4877832;29;20124;-82
2023/03/01 01:35:04;;;;;;;4.22;0.50;;;-3.40;99.90;;;;;;4892101;29;20044;-83
2023/03/01 01:37:33;;;;;;;1.30;0.40;;;-3.30;99.90;;;;;;4910459;29;20413;-82
2023/03/01 01:40:00;;;;;;;1.65;0.50;;;-3.30;99.90;;;;;;4875282;29;20056;-81
2023/03/01 01:42:27;;;;;;;2.03;0.40;;;-3.50;99.90;;;;;;4909359;29;20035;-82
2023/03/01 01:45:25;;;;;;;1.75;0.60;;;-3.60;99.90;;;;;;4895268;29;20032;-83
2023/03/01 01:47:52;;;;;;;2.00;0.52;;;-3.40;99.90;;;;;;4894139;29;20029;-82
2023/03/01 01:50:19;;;;;;;2.42;0.65;;;-3.60;99.90;;;;;;4893416;29;20515;-80
2023/03/01 01:52:48;;;;;;;1.83;0.60;;;-3.70;99.90;;;;;;4893248;29;20072;-80
2023/03/01 01:55:21;;;;;;;2.72;0.60;;;-3.70;99.90;;;;;;4894641;29;20033;-81
2023/03/01 01:58:01;;;;;;;1.75;0.70;;;-3.40;99.90;;;;;;4896886;29;20048;-80
2023/03/01 02:00:29;;;;;;;2.05;0.57;;;-3.50;99.90;;;;;;4909322;29;20031;-81
2023/03/01 02:03:03;;;;;;;2.00;0.70;;;-3.40;99.90;;;;;;4896939;29;20040;-81
2023/03/01 02:05:50;;;;;;;3.60;0.80;;;-3.30;99.90;;;;;;4907140;29;20035;-81
2023/03/01 02:08:19;;;;;;;2.55;0.80;;;-3.20;99.90;;;;;;4911210;29;20488;-80
2023/03/01 02:10:46;;;;;;;3.50;1.17;;;-3.00;99.90;;;;;;4896386;29;20055;-80
2023/03/01 02:13:12;;;;;;;2.70;0.80;;;-2.90;99.90;;;;;;4896073;29;20032;-81
2023/03/01 02:15:40;;;;;;;4.22;0.80;;;-3.00;99.90;;;;;;4895324;29;20496;-80
2023/03/01 02:18:07;;;;;;;3.20;1.00;;;-3.20;99.90;;;;;;4912045;29;20028;-81
2023/03/01 02:20:48;;;;;;;2.58;1.10;;;-3.10;99.90;;;;;;4913021;29;20056;-81
2023/03/01 02:23:14;;;;;;;3.08;1.05;;;-3.00;99.90;;;;;;4893397;29;20496;-81
2023/03/01 02:25:55;;;;;;;2.63;1.00;;;-3.00;99.90;;;;;;4896004;29;20888;-81
2023/03/01 02:28:36;;;;;;;4.05;1.48;;;-3.00;99.90;;;;;;4895741;29;20036;-81
2023/03/01 02:33:48;;;;;;;2.50;0.98;;;-3.00;99.90;;;;;;4912135;29;20343;-81
2023/03/01 02:36:19;;;;;;;2.45;0.70;;;-3.10;99.90;;;;;;4907333;29;20031;-82
2023/03/01 02:38:47;;;;;;;2.00;0.80;;;-3.10;99.90;;;;;;4894085;29;20602;-81
2023/03/01 02:41:16;;;;;;;5.20;1.00;;;-3.00;99.90;;;;;;4896700;29;20055;-81
2023/03/01 02:43:42;;;;;;;2.38;0.75;;;-3.20;99.90;;;;;;4911638;29;20032;-81
2023/03/01 02:46:15;;;;;;;3.13;0.80;;;-3.10;99.90;;;;;;4895120;29;20051;-82
2023/03/01 02:48:58;;;;;;;2.83;0.85;;;-3.10;99.90;;;;;;4895867;29;20175;-82
2023/03/01 02:51:42;;;;;;;3.40;0.90;;;-3.20;99.90;;;;;;4896334;29;20036;-81
2023/03/01 02:54:25;;;;;;;1.90;0.75;;;-3.00;99.90;;;;;;4907498;29;20504;-82
2023/03/01 02:56:52;;;;;;;2.65;0.93;;;-3.20;99.90;;;;;;4911159;29;20409;-82
2023/03/01 02:59:22;;;;;;;2.78;0.75;;;-3.30;99.90;;;;;;4895734;29;20028;-82
2023/03/01 03:01:48;;;;;;;3.33;0.70;;;-3.40;99.90;;;;;;4895983;29;20035;-82
2023/03/01 03:04:16;;;;;;;2.75;0.90;;;-3.20;99.90;;;;;;4895654;29;20032;-81
2023/03/01 03:06:45;;;;;;;2.85;0.70;;;-3.20;99.90;;;;;;4896246;29;20095;-82
2023/03/01 03:09:11;;;;;;;1.65;0.70;;;-3.40;99.90;;;;;;4895376;29;20420;-81
2023/03/01 03:11:39;;;;;;;1.95;0.70;;;-3.40;99.90;;;;;;4911227;29;20032;-81
2023/03/01 03:14:05;;;;;;;2.08;0.65;;;-3.30;99.90;;;;;;4890582;29;20043;-80
2023/03/01 03:16:31;;;;;;;1.55;0.60;;;-3.30;99.90;;;;;;4911015;29;20027;-82
2023/03/01 03:19:04;;;;;;;2.15;0.77;;;-3.30;99.90;;;;;;4911744;29;20115;-82
2023/03/01 03:21:32;;;;;;;2.00;0.60;;;-3.40;99.90;;;;;;4890379;29;20086;-80
2023/03/01 03:23:57;;;;;;;1.80;0.70;;;-3.40;99.90;;;;;;4892364;29;20036;-81
2023/03/01 03:26:23;;;;;;;2.97;0.70;;;-3.40;99.90;;;;;;4909913;29;20142;-81
2023/03/01 03:28:49;;;;;;;1.92;0.60;;;-3.50;99.90;;;;;;4895128;29;20043;-81
2023/03/01 03:31:14;;;;;;;2.53;0.60;;;-3.60;99.90;;;;;;4889855;29;20505;-81
2023/03/01 03:33:40;;;;;;;2.47;0.80;;;-3.60;99.90;;;;;;4894694;29;20155;-80
2023/03/01 03:36:06;;;;;;;1.90;0.70;;;-3.60;99.90;;;;;;4895583;29;20035;-82
2023/03/01 03:38:32;;;;;;;2.08;0.60;;;-3.60;99.90;;;;;;4891464;29;20036;-81
2023/03/01 03:41:07;;;;;;;2.58;0.60;;;-3.80;99.90;;;;;;4897031;29;20024;-81
2023/03/01 03:43:35;;;;;;;2.72;0.65;;;-3.80;99.90;;;;;;4896746;29;20024;-81
2023/03/01 03:46:05;;;;;;;2.40;0.88;;;-3.90;99.90;;;;;;4899948;29;20358;-81
2023/03/01 03:48:36;;;;;;;2.67;0.60;;;-3.80;99.90;;;;;;4912612;29;20056;-82
2023/03/01 03:51:05;;;;;;;2.28;0.60;;;-3.90;99.90;;;;;;4892960;29;20028;-81
2023/03/01 03:53:31;;;;;;;1.98;0.57;;;-3.70;99.90;;;;;;4915676;29;20503;-83
2023/03/01 03:55:58;;;;;;;2.45;0.60;;;-3.90;99.90;;;;;;4896229;29;20068;-80
2023/03/01 03:58:25;;;;;;;3.38;0.80;;;-4.00;99.90;;;;;;4911541;29;20031;-82
2023/03/01 04:00:55;;;;;;;2.00;0.60;;;-4.00;99.90;;;;;;4896878;29;20040;-80
2023/03/01 04:03:21;;;;;;;;;;;-4.00;99.90;;;;;;4896367;29;20032;-81
2023/03/01 04:05:50;;;;;;;3.75;0.57;;;-4.10;99.90;;;;;;4895381;29;19917;-81
2023/03/01 04:08:19;;;;;;;3.72;0.68;;;-4.20;99.90;;;;;;4896184;29;20039;-81
2023/03/01 04:10:47;;;;;;;2.10;0.60;;;-4.20;99.90;;;;;;4914977;29;20343;-81
2023/03/01 04:13:19;;;;;;;1.73;0.50;;;-4.20;99.90;;;;;;4913945;29;20036;-82
2023/03/01 04:15:47;;;;;;;5.10;0.63;;;-4.00;99.90;;;;;;4910865;29;20128;-82
2023/03/01 04:18:15;;;;;;;2.38;0.60;;;-4.20;99.90;;;;;;4897887;29;20032;-81
2023/03/01 04:20:41;;;;;;;3.03;0.80;;;-4.30;99.90;;;;;;4899317;29;20126;-82
2023/03/01 04:23:13;;;;;;;1.58;0.52;;;-4.40;99.90;;;;;;4893940;29;20398;-81
2023/03/01 04:25:40;;;;;;;1.80;0.57;;;-4.40;99.90;;;;;;4898488;29;20024;-83
2023/03/01 04:28:06;;;;;;;2.13;0.60;;;-4.40;99.90;;;;;;4895909;29;20028;-81
2023/03/01 04:30:35;;;;;;;2.97;0.70;;;-4.30;99.90;;;;;;4914444;29;20348;-82
2023/03/01 04:33:09;;;;;;;2.40;0.80;;;-4.20;99.90;;;;;;4893826;29;20036;-83
2023/03/01 04:35:36;;;;;;;2.60;0.68;;;-4.20;99.90;;;;;;4913976;29;20536;-81
2023/03/01 04:38:02;;;;;;;2.60;0.88;;;-4.40;99.90;;;;;;4896044;29;20028;-82
2023/03/01 04:40:28;;;;;;;2.20;0.70;;;-4.40;99.90;;;;;;4896925;29;20043;-83
2023/03/01 04:42:54;;;;;;;2.15;0.70;;;-4.40;99.90;;;;;;4881919;29;20115;-82
2023/03/01 04:45:20;;;;;;;2.38;0.80;;;-4.40;99.90;;;;;;4894012;29;20561;-82
2023/03/01 04:47:46;;;;;;;1.77;0.60;;;-4.30;99.90;;;;;;4898422;29;20501;-82
2023/03/01 04:50:15;;;;;;;1.95;0.70;;;-4.30;99.90;;;;;;4896199;29;20370;-82
2023/03/01 04:52:42;;;;;;;2.55;0.82;;;-4.50;99.90;;;;;;4893054;29;20476;-81
2023/03/01 04:55:09;;;;;;;2.28;0.50;;;-4.40;99.90;;;;;;4898112;29;20048;-82
2023/03/01 04:57:35;;;;;;;2.72;0.80;;;-4.40;99.90;;;;;;4897822;29;20082;-81
2023/03/01 05:00:00;;;;;;;2.38;0.80;;;-4.50;99.90;;;;;;4895428;29;20064;-82
2023/03/01 05:02:26;;;;;;;2.15;0.60;;;-4.50;99.90;;;;;;4898166;29;20028;-81
2023/03/01 05:04:52;;;;;;;1.90;0.60;;;-4.60;99.90;;;;;;4895253;29;20038;-82
2023/03/01 05:07:19;;;;;;;1.80;0.60;;;-4.70;99.90;;;;;;4897750;29;20434;-82
2023/03/01 05:09:46;;;;;;;2.75;0.60;;;-4.70;99.90;;;;;;4894392;29;20040;-81
2023/03/01 05:12:13;;;;;;;1.60;0.75;;;-4.70;99.90;;;;;;4897122;29;20071;-81
2023/03/01 05:14:39;;;;;;;1.98;0.60;;;-4.70;99.90;;;;;;4895548;29;20071;-82
2023/03/01 05:17:05;;;;;;;2.00;0.60;;;-4.60;99.90;;;;;;4893668;29;20035;-81
2023/03/01 05:19:32;;;;;;;2.03;0.70;;;-4.80;99.90;;;;;;4898006;29;20039;-81
2023/03/01 05:22:04;;;;;;;1.92;0.50;;;-4.90;99.90;;;;;;4897546;29;20029;-81
2023/03/01 05:24:31;;;;;;;1.60;0.50;;;-4.90;99.90;;;;;;4893747;29;20032;-82
2023/03/01 05:26:58;;;;;;;1.83;0.50;;;-5.00;99.90;;;;;;4913195;29;20025;-82
2023/03/01 05:29:25;;;;;;;3.10;0.80;;;-5.00;99.90;;;;;;4913396;29;20028;-82
2023/03/01 05:32:00;;;;;;;1.90;0.50;;;-5.00;99.90;;;;;;4897450;29;20543;-81
2023/03/01 05:34:31;;;;;;;1.85;0.50;;;-5.00;99.90;;;;;;4894120;29;20036;-81
2023/03/01 05:36:57;;;;;;;4.32;0.60;;;-5.00;99.90;;;;;;4895218;29;20052;-81
2023/03/01 05:39:26;;;;;;;2.10;0.63;;;-5.00;99.90;;;;;;4896648;29;20119;-81
2023/03/01 05:41:53;;;;;;;1.90;0.50;;;-4.90;99.90;;;;;;4881066;29;20126;-81
2023/03/01 05:44:19;;;;;;;1.67;0.60;;;-4.80;99.90;;;;;;4894524;29;20374;-81
2023/03/01 05:46:44;;;;;;;1.93;0.70;;;-4.70;99.90;;;;;;4895446;29;20039;-81
2023/03/01 05:49:13;;;;;;;2.60;0.80;;;-4.90;99.90;;;;;;4894509;29;20059;-82
2023/03/01 05:51:39;;;;;;;2.17;0.70;;;-4.90;99.90;;;;;;4893192;29;20046;-82
2023/03/01 05:54:05;;;;;;;1.88;0.70;;;-4.80;99.90;;;;;;4894487;29;20488;-81
2023/03/01 05:56:34;;;;;;;3.28;0.80;;;-4.60;99.90;;;;;;4896455;29;20304;-82
2023/03/01 05:59:00;;;;;;;2.30;0.70;;;-4.80;99.90;;;;;;4892190;29;20043;-82
2023/03/01 06:01:26;;;;;;;1.92;0.60;;;-4.80;99.90;;;;;;4896073;29;20401;-82
2023/03/01 06:03:52;;;;;;;2.10;0.70;;;-4.90;99.90;;;;;;4896191;29;20036;-82
2023/03/01 06:06:18;;;;;;;1.83;0.60;;;-4.80;99.90;;;;;;4912206;29;20028;-81
2023/03/01 06:08:44;;;;;;;3.95;0.60;;;-5.00;99.90;;;;;;4896758;29;20130;-82
2023/03/01 06:11:09;;;;;;;2.17;0.55;;;-5.10;99.90;;;;;;4895042;29;20044;-81
2023/03/01 06:13:35;;;;;;;3.47;0.60;;;-5.10;99.90;;;;;;4895526;29;20044;-82
2023/03/01 06:16:05;;;;;;;1.43;0.60;;;-5.10;99.90;;;;;;4894765;29;20425;-81
2023/03/01 06:18:31;;;;;;;2.25;0.70;;;-5.20;99.90;;;;;;4894185;29;20035;-82
2023/03/01 06:20:57;;;;;;;1.50;0.50;;;-5.10;99.90;;;;;;4908315;29;20219;-82
2023/03/01 06:23:24;;;;;;;1.30;0.50;;;-5.10;99.90;;;;;;4912060;29;20066;-82
2023/03/01 06:25:50;;;;;;;2.60;0.70;;;-5.20;99.90;;;;;;4897274;29;20104;-80
2023/03/01 06:28:16;;;;;;;3.38;0.82;;;-5.20;99.90;;;;;;4892694;29;20035;-81
2023/03/01 06:30:41;;;;;;;1.50;0.50;;;-5.00;99.90;;;;;;4894268;29;20043;-82
2023/03/01 06:33:07;;;;;;;2.38;0.70;;;-4.80;99.90;;;;;;4892376;29;20020;-81
2023/03/01 06:35:33;;;;;;;2.30;0.60;;;-4.80;99.90;;;;;;4895626;29;20131;-81
2023/03/01 06:38:00;;;;;;;2.30;0.60;;;-4.90;99.90;;;;;;4893438;29;20028;-81
2023/03/01 06:40:26;;;;;;;1.92;0.70;;;-5.00;99.90;;;;;;4895649;29;20451;-81
2023/03/01 06:42:52;;;;;;;2.17;0.70;;;-5.10;99.90;;;;;;4895758;29;20036;-81
2023/03/01 06:45:19;;;;;;;2.83;0.60;;;-5.20;99.90;;;;;;4910701;29;20032;-82
2023/03/01 06:47:45;;;;;;;3.90;0.70;;;-5.10;99.90;;;;;;4893951;29;20335;-81
2023/03/01 06:50:13;;;;;;;1.92;0.60;;;-5.10;99.90;;;;;;4892055;29;20513;-82
2023/03/01 06:52:38;;;;;;;1.92;0.50;;;-5.00;99.90;;;;;;4893257;29;20040;-83
2023/03/01 06:55:05;;;;;;;2.90;0.50;;;-5.00;99.90;;;;;;4909822;29;20044;-82
2023/03/01 06:57:31;;;;;;;2.10;0.50;;;-4.90;99.90;;;;;;4891147;29;20626;-82
2023/03/01 06:59:56;;;;;;;2.20;0.60;;;-4.90;99.90;;;;;;4891148;29;20032;-83
2023/03/01 07:02:23;;;;;;;1.50;0.50;;;-4.70;99.90;;;;;;4887301;29;21016;-80
2023/03/01 07:04:50;;;;;;;1.83;0.77;;;-4.70;99.90;;;;;;4894570;29;20028;-81
2023/03/01 07:07:17;;;;;;;2.70;0.80;;;-4.50;99.90;;;;;;4894942;29;20028;-82
2023/03/01 07:09:44;;;;;;;2.90;0.70;;;-4.40;99.90;;;;;;4894855;29;20192;-81
2023/03/01 07:12:10;;;;;;;2.67;0.63;;;-4.30;99.90;;;;;;4907420;29;20370;-80
2023/03/01 07:14:35;;;;;;;2.73;0.90;;;-4.20;99.90;;;;;;4890638;29;20044;-80
2023/03/01 07:17:01;;;;;;;2.47;0.95;;;-4.10;99.90;;;;;;4891616;29;20032;-80
2023/03/01 07:19:27;;;;;;;2.95;1.17;;;-4.00;99.90;;;;;;4895669;29;20048;-80
2023/03/01 07:21:53;;;;;;;3.38;1.25;;;-3.70;99.90;;;;;;4890676;29;20039;-83
2023/03/01 07:24:18;;;;;;;4.05;1.33;;;-3.70;99.90;;;;;;4891822;29;20043;-82
2023/03/01 07:26:47;;;;;;;3.70;1.50;;;-3.80;99.90;;;;;;4894888;29;20069;-80
2023/03/01 07:29:13;;;;;;;3.88;1.30;;;-3.60;99.90;;;;;;4878264;29;20055;-84
2023/03/01 07:31:39;;;;;;;2.97;1.20;;;-3.60;99.90;;;;;;4894717;29;20489;-82
2023/03/01 07:34:04;;;;;;;3.28;1.15;;;-3.50;99.90;;;;;;4891594;29;20039;-79
2023/03/01 07:36:30;;;;;;;4.68;0.75;;;-3.50;99.90;;;;;;4894246;29;20031;-79
2023/03/01 07:38:56;;;;;;;2.77;0.90;;;-3.40;99.90;;;;;;4892660;29;20024;-80
2023/03/01 07:41:22;;;;;;;2.38;0.70;;;-3.30;99.90;;;;;;4911248;29;20024;-80
2023/03/01 07:43:47;;;;;;;3.92;1.13;;;-3.20;99.90;;;;;;4892124;29;20036;-80
2023/03/01 07:46:13;;;;;;;3.88;1.00;;;-3.20;99.90;;;;;;4907775;29;20413;-80
2023/03/01 07:48:39;;;;;;;2.78;0.80;;;-3.00;99.90;;;;;;4892933;29;20080;-80
2023/03/01 07:51:07;;;;;;;3.35;0.98;;;-2.90;99.90;;;;;;4906068;29;20055;-81
2023/03/01 07:53:33;;;;;;;4.18;1.25;;;-2.80;99.90;;;;;;4894577;29;20491;-82
2023/03/01 07:56:13;;;;;;;2.72;0.90;;;-2.80;99.90;;;;;;4894077;29;20139;-82
2023/03/01 07:58:42;;;;;;;4.88;1.38;;;-2.70;99.90;;;;;;4910653;29;20051;-79
2023/03/01 08:01:11;;;;;;;3.88;1.52;;;-2.50;99.90;;;;;;4891552;29;20048;-81
2023/03/01 08:03:37;;;;;;;2.92;1.08;;;-2.30;99.90;;;;;;4894241;29;20032;-83
2023/03/01 08:06:06;;;;;;;3.35;1.30;;;-2.20;99.90;;;;;;4908536;29;20123;-80
2023/03/01 08:08:32;;;;;;;3.67;1.27;;;-2.10;99.90;;;;;;4890939;29;20467;-80
2023/03/01 08:10:59;;;;;;;3.10;0.90;;;-2.00;99.90;;;;;;4890173;29;20102;-80
2023/03/01 08:13:26;;;;;;;4.60;1.77;;;-1.90;99.90;;;;;;4909417;29;20028;-80
2023/03/01 08:15:52;;;;;;;3.63;1.33;;;-1.70;99.90;;;;;;4893075;29;20047;-80
2023/03/01 08:18:19;;;;;;;4.43;1.20;;;-1.60;99.90;;;;;;4890841;29;20024;-80
2023/03/01 08:20:45;;;;;;;4.10;1.40;;;-1.50;99.90;;;;;;4911424;29;20024;-85
2023/03/01 08:23:11;;;;;;;2.83;0.90;;;-1.20;99.90;;;;;;4893736;29;20500;-81
2023/03/01 08:25:37;;;;;;;3.42;1.20;;;-1.10;99.90;;;;;;4911175;29;20683;-81
2023/03/01 08:28:04;;;;;;;2.53;1.20;;;-1.00;99.90;;;;;;4913416;29;20040;-82
2023/03/01 08:30:29;;;;;;;2.55;0.93;;;-0.80;99.90;;;;;;4895722;29;20028;-82
2023/03/01 08:32:55;;;;;;;2.13;0.82;;;-0.60;99.90;;;;;;4897544;29;20433;-82
2023/03/01 08:35:21;;;;;;;3.90;1.33;;;-0.40;99.90;;;;;;4913044;29;20101;-82
2023/03/01 08:37:47;;;;;;;4.20;1.50;;;-0.20;99.90;;;;;;4897703;29;20496;-82
2023/03/01 08:40:13;;;;;;;4.38;1.20;;;0.00;99.90;;;;;;4895798;29;20076;-83
2023/03/01 08:42:40;;;;;;;4.85;1.42;;;0.10;99.90;;;;;;4896113;29;20085;-83
2023/03/01 08:45:07;;;;;;;6.50;1.67;;;0.30;99.90;;;;;;4896360;29;20039;-81
2023/03/01 08:47:33;;;;;;;3.75;1.40;;;0.40;99.90;;;;;;4913829;29;20036;-83
2023/03/01 08:49:59;;;;;;;3.35;1.20;;;0.60;99.90;;;;;;4897597;29;20035;-85
2023/03/01 08:52:25;;;;;;;4.03;1.30;;;0.70;99.90;;;;;;4887141;29;20207;-83
2023/03/01 08:54:51;;;;;;;3.35;1.45;;;0.90;99.90;;;;;;4898494;29;20244;-83
2023/03/01 08:57:17;;;;;;;3.67;1.50;;;1.10;99.90;;;;;;4909898;29;20409;-83
2023/03/01 08:59:42;;;;;;;3.50;1.13;;;1.20;99.90;;;;;;4910438;29;20036;-85
2023/03/01 09:02:14;;;;;;;3.88;1.23;;;1.30;99.90;;;;;;4894235;29;20037;-84
2023/03/01 09:04:41;;;;;;;2.13;0.93;;;1.50;99.90;;;;;;4908665;29;20048;-84
2023/03/01 09:07:07;;;;;;;5.85;1.30;;;1.60;99.90;;;;;;4894439;29;20039;-83
2023/03/01 09:09:32;;;;;;;2.85;0.98;;;1.70;99.90;;;;;;4894631;29;20469;-84
2023/03/01 09:11:58;;;;;;;2.75;0.88;;;1.80;99.90;;;;;;4893694;29;20039;-85
2023/03/01 09:14:24;;;;;;;2.53;0.98;;;2.00;99.90;;;;;;4906596;29;20116;-84
2023/03/01 09:16:50;;;;;;;4.00;1.90;;;2.10;99.90;;;;;;4894624;29;20045;-86
2023/03/01 09:19:16;;;;;;;3.20;1.20;;;2.20;99.90;;;;;;4890851;29;20111;-83
2023/03/01 09:21:52;;;;;;;3.63;1.23;;;2.30;99.90;;;;;;4892223;29;20129;-85
2023/03/01 09:24:19;;;;;;;2.53;1.10;;;2.50;99.90;;;;;;4893037;29;20409;-85
2023/03/01 09:26:47;;;;;;;3.20;1.65;;;2.60;99.90;;;;;;4892753;29;20532;-85
2023/03/01 09:29:14;;;;;;;3.50;1.65;;;2.70;99.90;;;;;;4875421;29;20546;-84
2023/03/01 09:31:40;;;;;;;5.63;1.60;;;2.80;99.90;;;;;;4909682;29;20040;-85
2023/03/01 09:34:06;;;;;;;3.10;1.15;;;2.90;99.90;;;;;;4893603;29;20119;-85
2023/03/01 09:36:31;;;;;;;5.32;1.98;;;3.00;99.90;;;;;;4892349;29;20028;-85
2023/03/01 09:38:59;;;;;;;3.40;1.20;;;3.10;99.90;;;;;;4889667;29;20103;-86
2023/03/01 09:41:37;;;;;;;4.68;1.17;;;3.30;99.90;;;;;;4909270;29;20032;-86
2023/03/01 09:44:31;;;;;;;2.90;0.90;;;3.40;99.90;;;;;;4893656;29;20024;-87
2023/03/01 09:46:57;;;;;;;2.70;0.82;;;3.50;99.90;;;;;;4889236;29;20477;-86
2023/03/01 09:49:30;;;;;;;2.58;1.00;;;3.70;99.90;;;;;;4895357;29;20035;-85
2023/03/01 09:51:58;;;;;;;2.45;0.80;;;3.90;99.90;;;;;;4892546;29;20051;-86
2023/03/01 09:54:24;;;;;;;2.70;0.93;;;3.90;99.90;;;;;;4889740;29;20096;-86
2023/03/01 09:57:15;;;;;;;3.65;0.95;;;4.00;99.90;;;;;;4892965;29;20056;-88
2023/03/01 10:00:01;;;;;;;3.85;0.90;;;4.20;99.90;;;;;;4890910;29;20495;-86
2023/03/01 10:02:49;;;;;;;3.17;1.25;;;4.20;99.90;;;;;;4892701;29;20390;-87
2023/03/01 10:05:40;;;;;;;3.40;1.27;;;4.40;99.90;;;;;;4893498;29;20117;-87
2023/03/01 10:08:36;;;;;;;4.80;1.33;;;4.50;99.90;;;;;;4913094;29;20082;-86
2023/03/01 10:11:03;;;;;;;3.05;1.55;;;4.40;99.90;;;;;;4913564;29;20032;-87
2023/03/01 10:13:52;;;;;;;3.65;1.88;;;4.30;99.90;;;;;;4911756;29;20035;-87
2023/03/01 10:16:24;;;;;;;5.00;1.60;;;4.40;99.90;;;;;;4894419;29;20646;-89
2023/03/01 10:18:55;;;;;;;2.72;1.13;;;4.50;99.90;;;;;;4899317;29;20158;-87
2023/03/01 10:21:21;;;;;;;4.68;1.88;;;4.60;99.90;;;;;;4893789;29;20473;-87
2023/03/01 10:23:52;;;;;;;2.90;1.25;;;4.70;99.90;;;;;;4895059;29;20067;-87
2023/03/01 10:26:38;;;;;;;3.45;1.17;;;4.70;99.90;;;;;;4892928;29;20032;-88
2023/03/01 10:29:12;;;;;;;3.25;1.27;;;4.80;99.90;;;;;;4893078;29;20036;-89
2023/03/01 10:31:45;;;;;;;3.38;1.38;;;4.70;99.90;;;;;;4895192;29;20378;-86
2023/03/01 10:34:34;;;;;;;4.22;1.58;;;4.70;99.90;;;;;;4894311;29;20040;-87
2023/03/01 10:37:20;;;;;;;3.58;1.52;;;4.80;99.90;;;;;;4894672;29;20119;-87
2023/03/01 10:40:08;;;;;;;3.72;1.40;;;5.00;99.90;;;;;;4892076;29;20036;-87
2023/03/01 10:42:47;;;;;;;2.78;1.38;;;5.00;99.90;;;;;;4890277;29;20101;-88
2023/03/01 10:45:30;;;;;;;3.50;1.55;;;5.00;99.90;;;;;;4890217;29;20041;-87
2023/03/01 10:48:15;;;;;;;2.45;1.30;;;5.10;99.90;;;;;;4893086;29;20047;-88
2023/03/01 10:50:47;;;;;;;3.25;0.95;;;5.10;99.90;;;;;;4891018;29;20071;-87
2023/03/01 10:53:26;;;;;;;2.85;0.90;;;5.20;99.90;;;;;;4895143;29;20032;-89
2023/03/01 10:56:08;;;;;;;1.98;0.90;;;5.50;99.90;;;;;;4895738;29;20160;-88
2023/03/01 10:58:37;;;;;;;2.80;1.08;;;5.30;99.90;;;;;;4890028;29;20028;-87
2023/03/01 11:01:37;;;;;;;2.85;1.13;;;5.40;99.90;;;;;;4891253;29;20039;-88
2023/03/01 11:04:11;;;;;;;2.70;1.45;;;5.40;99.90;;;;;;4895670;29;20024;-88
2023/03/01 11:06:39;;;;;;;3.38;1.20;;;5.50;99.90;;;;;;4891190;29;20385;-86
2023/03/01 11:09:24;;;;;;;3.20;1.38;;;5.50;99.90;;;;;;4894621;29;20136;-88
2023/03/01 11:11:55;;;;;;;2.83;0.98;;;5.40;99.90;;;;;;4891003;29;20047;-88
2023/03/01 11:14:26;;;;;;;3.85;1.45;;;5.60;99.90;;;;;;4909627;29;20044;-88
2023/03/01 11:17:12;;;;;;;3.58;1.40;;;5.60;99.90;;;;;;4890702;29;20032;-89
2023/03/01 11:19:38;;;;;;;3.95;1.15;;;5.70;99.90;;;;;;4892915;29;20511;-89
2023/03/01 11:22:19;;;;;;;3.80;1.35;;;5.90;99.90;;;;;;4895712;29;20072;-89
2023/03/01 11:24:51;;;;;;;2.45;0.95;;;5.80;99.90;;;;;;4891131;29;20039;-90
2023/03/01 11:27:26;;;;;;;3.30;1.02;;;6.10;99.90;;;;;;4892633;29;20083;-88
2023/03/01 11:30:04;;;;;;;2.65;1.02;;;5.80;99.90;;;;;;4891226;29;20194;-90
2023/03/01 11:32:42;;;;;;;4.22;1.42;;;6.00;99.90;;;;;;4905378;29;20036;-90
2023/03/01 11:35:27;;;;;;;3.42;1.55;;;6.10;99.90;;;;;;4889107;29;20040;-90
2023/03/01 11:37:56;;;;;;;2.58;1.10;;;6.00;99.90;;;;;;4890974;29;20496;-90
2023/03/01 11:40:25;;;;;;;3.20;1.50;;;6.20;99.90;;;;;;4893306;29;20052;-90
2023/03/01 11:43:19;;;;;;;5.63;1.80;;;6.10;99.90;;;;;;4894943;29;20040;-90
2023/03/01 11:45:55;;;;;;;5.75;2.33;;;6.00;99.90;;;;;;4891740;29;20440;-89
2023/03/01 11:48:34;;;;;;;4.05;1.77;;;6.00;99.90;;;;;;4891448;29;20068;-90
2023/03/01 11:51:05;;;;;;;3.85;1.55;;;6.40;99.90;;;;;;4893252;29;20060;-88
2023/03/01 11:53:55;;;;;;;4.00;1.90;;;6.40;99.90;;;;;;4887892;29;20029;-88
2023/03/01 11:56:45;;;;;;;4.28;1.73;;;6.10;99.90;;;;;;4890492;29;20052;-88
2023/03/01 11:59:20;;;;;;;4.43;1.88;;;6.20;99.90;;;;;;4891386;29;20056;-88
2023/03/01 12:01:55;;;;;;;4.25;1.90;;;6.50;99.90;;;;;;4908481;29;20047;-89
2023/03/01 12:04:51;;;;;;;3.38;1.50;;;6.60;99.90;;;;;;4890538;29;20024;-89
2023/03/01 12:07:41;;;;;;;3.90;1.80;;;6.70;99.90;;;;;;4894564;29;20035;-88
2023/03/01 12:10:10;;;;;;;4.88;2.22;;;6.60;99.90;;;;;;4891545;29;20029;-89
2023/03/01 12:12:56;;;;;;;4.63;2.00;;;6.40;99.90;;;;;;4893626;29;20047;-88
2023/03/01 12:15:51;;;;;;;4.15;1.92;;;6.40;99.90;;;;;;4894051;29;20039;-90
2023/03/01 12:18:48;;;;;;;3.25;1.60;;;6.50;99.90;;;;;;4893719;29;20433;-90
2023/03/01 12:21:20;;;;;;;3.45;1.88;;;6.80;99.90;;;;;;4895093;29;20513;-89
2023/03/01 12:24:20;;;;;;;2.95;1.70;;;6.80;99.90;;;;;;4909919;29;20502;-91
2023/03/01 12:27:08;;;;;;;4.05;1.95;;;6.60;99.90;;;;;;4890731;29;20032;-88
2023/03/01 12:30:11;;;;;;;4.82;1.83;;;6.40;99.90;;;;;;4908903;29;20478;-90
2023/03/01 12:33:02;;;;;;;4.25;2.17;;;6.60;99.90;;;;;;4891636;29;20029;-91
2023/03/01 12:35:42;;;;;;;4.70;1.65;;;6.60;99.90;;;;;;4890599;29;20040;-88
2023/03/01 12:38:23;;;;;;;5.43;2.20;;;6.40;99.90;;;;;;4891597;29;20473;-88
2023/03/01 12:41:16;;;;;;;2.92;1.77;;;6.40;99.90;;;;;;4889441;29;20501;-89
2023/03/01 12:44:12;;;;;;;3.53;1.52;;;6.50;99.90;;;;;;4895294;29;20064;-89
2023/03/01 12:47:48;;;;;;;3.47;1.33;;;6.80;99.90;;;;;;4891585;29;20040;-89
2023/03/01 12:50:19;;;;;;;3.10;1.42;;;6.90;99.90;;;;;;4786437;29;20519;-90
2023/03/01 12:52:50;;;;;;;3.47;1.05;;;6.90;99.90;;;;;;4771263;29;20047;-89
2023/03/01 12:55:35;;;;;;;3.60;1.30;;;7.10;99.90;;;;;;4786707;29;20092;-89
2023/03/01 12:58:12;;;;;;;4.18;1.45;;;7.00;99.90;;;;;;4783042;29;20066;-89
2023/03/01 13:00:47;;;;;;;2.35;1.30;;;6.80;99.90;;;;;;4749678;30;20043;-89
2023/03/01 13:03:27;;;;;;;4.50;2.10;;;6.90;99.90;;;;;;4767340;30;20567;-88
2023/03/01 13:06:11;;;;;;;2.95;1.55;;;6.90;99.90;;;;;;4755243;30;20137;-89
2023/03/01 13:09:00;;;;;;;3.17;1.40;;;6.90;99.90;;;;;;4768254;30;20139;-90
2023/03/01 13:11:26;;;;;;;2.35;1.05;;;7.00;99.90;;;;;;4783416;29;20615;-93
2023/03/01 13:13:54;;;;;;;5.38;1.50;;;7.20;99.90;;;;;;4768667;29;20163;-91